Tiempo atmosférico en la estación meteorológica de San Vicente de la Barquera, Cantabria (39 m.)



Fecha
DESCASC
Temp. máxima en grados centígrados (hora)
DESCASC
Temp. mínima en grados centígrados (hora)
DESCASC
Temp. media en grados centígrados
DESCASC
Racha de viento máxima en m/sg (hora)
DESCASC
Velocidad máxima media en intervalos de 10 minutos(hora)
DESCASC
Precipitaciones diarias en mm
DESCASC
Precipitaciones de 00:00 a 06:00 en mm
DESCASC
Precipitaciones de 06:00 a 12:00 en mm
DESCASC
Precipitaciones de 12:00 a 18:00 en mm
DESCASC
Precipitaciones de 18:00 a 24:00 en mm
DESCASC
23-06-2019 21.5 (12:50) 15.9 (07:00) 18.7 12.5 (00:40) 8.61 (00:40) 0 0 0 0 0
22-06-2019 21 (20:00) 10.7 (06:50) 15.8 7.5 (16:50) 5 (16:10) 0 0 0 0 0
21-06-2019 18 (16:40) 13.1 (08:50) 15.6 8.06 (16:40) 5.28 (07:00) 7.7 6.2 1.4 0.1 0
20-06-2019 16.4 (13:40) 14.3 (00:00) 15.3 6.94 (23:30) 4.72 (23:30) 8.9 0.3 4.2 0.2 4.2
19-06-2019 20 (14:30) 12.6 (00:00) 16.3 6.67 (20:10) 4.72 (09:50) 6.7 0 0 0 6.7
18-06-2019 18.6 (13:00) 13.2 (00:00) 15.9 8.61 (14:10) 6.67 (14:00) 0 0 0 0 0
17-06-2019 17.9 (13:20) 14.4 (00:00) 16.1 5.28 (15:50) 3.61 (14:10) 0 0 0 0 0
16-06-2019 18.5 (14:40) 9.1 (00:00) 13.8 5.28 (14:50) 3.61 (06:30) 0 0 0 0 0
15-06-2019 17.9 (10:10) 11.5 (00:00) 14.7 5.83 (11:40) 4.17 (12:00) 0.1 0.1 0 0 0
14-06-2019 16.5 (13:20) 8.2 (00:00) 12.3 5.28 (16:00) 3.61 (16:00) 0.2 0 0 0 0.2
13-06-2019 15.2 (13:30) 10.4 (00:00) 12.8 5 (15:20) 3.61 (15:30) 0 0 0 0 0
12-06-2019 16.1 (16:20) 12.4 (00:00) 14.3 11.67 (02:30) 8.61 (13:50) 0 0 0 0 0
11-06-2019 15.7 (17:00) 9.4 (00:00) 12.5 13.61 (13:10) 9.17 (20:30) 14.5 5.7 8.8 0 0
10-06-2019 15.7 (12:30) 8.3 (00:00) 12 10 (23:00) 4.72 (23:00) 1.5 0 0 0 1.5
09-06-2019 14 (08:50) 11.5 (00:00) 12.8 8.61 (16:30) 5.28 (16:30) 2.6 0 0.5 1.7 0.4
08-06-2019 16.3 (12:50) 11 (00:00) 13.6 9.17 (16:20) 6.39 (15:50) 0.1 0 0.1 0 0
07-06-2019 17.7 (12:30) 10.4 (00:00) 14.1 19.17 (13:10) 14.17 (13:40) 0.9 0.1 0 0 0.8
06-06-2019 24.3 (15:20) 9.4 (00:00) 16.8 14.17 (22:20) 9.17 (22:20) 0.8 0 0 0 0.8
05-06-2019 16 (15:00) 12 (00:00) 14 15 (13:00) 10.28 (10:30) 0.9 0.5 0.4 0 0
04-06-2019 20 (13:00) 12.2 (00:00) 16.1 15.28 (14:00) 9.17 (14:30) 2.8 0 0.1 0.1 2.6
03-06-2019 19.5 (16:40) 13.7 (00:00) 16.6 4.17 (14:20) 3.33 (14:20) 0 0 0 0 0
02-06-2019 22.3 (10:20) 13.7 (00:00) 18 8.33 (16:00) 6.11 (16:00) 0 0 0 0 0
01-06-2019 23.4 (19:20) 13.4 (00:00) 18.4 8.06 (15:20) 5.56 (15:10) 0 0 0 0 0
31-05-2019 20.6 (17:50) 12 (00:00) 16.3 7.22 (18:30) 4.44 (15:10) 0 0 0 0 0
30-05-2019 18.4 (17:10) 10.2 (00:00) 14.3 10.28 (15:00) 6.67 (15:00) 0 0 0 0 0
29-05-2019 17.3 (17:00) 10.9 (00:00) 14.1 7.78 (20:50) 5.28 (21:10) 0 0 0 0 0
28-05-2019 16.6 (16:10) 11.8 (00:00) 14.2 12.5 (13:00) 8.61 (15:00) 0 0 0 0 0
27-05-2019 15.1 (15:50) 12.9 (00:00) 14 10 (13:50) 6.39 (13:40) 3.3 0 1.3 2 0
26-05-2019 16.6 (13:00) 12.2 (00:00) 14.4 7.22 (12:40) 5 (12:50) 0.2 0 0 0 0.2

Gráficas

Temp. máximas Temp. mínimas Temp. medias Precipitaciones Rachas de viento máximas Velocidades máximas media en intervalos de 10 minutos

Datos horarios

Fecha y hora oficial Temperatura (ºC) Velocidad del viento (km/h) Dirección del viento Racha (km/h) Dirección de racha Precipitación (mm) Presión (hPa) Tendencia (hPa) Humedad (%)
2019-06-24 23:00:00 16.3 6 Este 13 Este 1.1 1011.3 0.5 92
2019-06-24 22:00:00 16.5 5 Este 14 Este 0.3 1010.2 -0.7 91
2019-06-24 21:00:00 16.8 3 Este 9 Nordeste 0.7 1010.7 -0.4 91
2019-06-24 20:00:00 17.6 3 Sudeste 6 Noroeste 0 1010.8 0 90
2019-06-24 19:00:00 17.9 2 Sudoeste 9 Sur 0 1010.9 0.7 91
2019-06-24 18:00:00 17.4 3 Noroeste 8 Noroeste 0 1011.1 1.3 91
2019-06-24 17:00:00 17.3 5 Noroeste 15 Noroeste 0 1010.8 1.5 91
2019-06-24 16:00:00 17.1 12 Noroeste 19 Noroeste 0 1010.2 1.2 91
2019-06-24 15:00:00 17.3 10 Noroeste 18 Noroeste 0 1009.8 1 91
2019-06-24 14:00:00 18.2 10 Noroeste 15 Noroeste 0 1009.3 0.4 91
2019-06-24 13:00:00 17.7 4 Nordeste 12 Este 0 1009 0 91
2019-06-24 12:00:00 17.7 5 Nordeste 10 Nordeste 0 1008.8 -0.6 91
2019-06-24 11:00:00 17.1 2 Nordeste 5 Sur 0 1008.9 0.1 91
2019-06-24 10:00:00 16.8 0 Calma 12 Sur 0 1009 0.6 91
2019-06-24 09:00:00 16.2 7 Oeste 14 Oeste 0 1009.4 1.3 92
2019-06-24 08:00:00 15.9 2 Oeste 6 Sudeste 0 1008.8 0.7 92
2019-06-24 07:00:00 15.8 2 Sudeste 11 Sur 0 1008.4 -0.3 92
2019-06-24 06:00:00 15.9 4 Sudeste 10 Este 0 1008.1 -1 91
2019-06-24 05:00:00 16.1 5 Este 10 Este 0 1008.1 -1.7 91
2019-06-24 04:00:00 16.3 4 Este 13 Sudeste 0 1008.7 -1.2 91
2019-06-24 03:00:00 16.5 7 Sudeste 14 Sudeste 0 1009.1 -0.7 91
2019-06-24 02:00:00 16.8 0 Calma 4 Sudoeste 0 1009.8 0 91
2019-06-24 01:00:00 16.9 0 Calma 7 Noroeste 0 1009.9 0.8 91
2019-06-24 00:00:00 16.8 5 Norte 8 Norte 0 1009.8 1.3 91
2019-06-23 23:00:00 17.3 0 Calma 13 Norte 0 1009.8 1.2 90
2019-06-23 22:00:00 17.8 5 Nordeste 19 Este 0 1009.1 0.9 87
2019-06-23 21:00:00 17.9 11 Este 19 Este 0 1008.5 0 87
2019-06-23 20:00:00 18.2 6 Este 18 Este 0 1008.6 0.8 84
2019-06-23 19:00:00 18.5 4 Este 12 Este 0 1008.2 0.6 84
2019-06-23 18:00:00 18.8 4 Noroeste 18 Este 0 1008.5 0.3 85
2019-06-23 17:00:00 19.1 10 Este 19 Este 0 1007.8 -0.3 80
2019-06-23 16:00:00 19.7 5 Este 15 Este 0 1007.6 -0.3 79
2019-06-23 15:00:00 20.1 7 Norte 9 Norte 0 1008.2 0.9 83
2019-06-23 14:00:00 20.2 5 Norte 8 Norte 0 1008.1 1.2 78
2019-06-23 13:00:00 21.2 6 Norte 9 Norte 0 1007.9 1.2 74
2019-06-23 12:00:00 19.9 3 Nordeste 7 Nordeste 0 1007.3 0.6 72
2019-06-23 11:00:00 19.5 5 Nordeste 11 Este 0 1006.9 0.3 78
2019-06-23 10:00:00 18.4 3 Este 7 Este 0 1006.7 0.6 83
2019-06-23 09:00:00 17.7 2 Sur 10 Sudoeste 0 1006.7 1.3 87
2019-06-23 08:00:00 16.8 3 Sudoeste 9 Sudoeste 0 1006.6 2.6 90
2019-06-23 07:00:00 16 4 Sur 28 Oeste 0 1006.1 2.5 91
2019-06-23 06:00:00 16.5 21 Oeste 32 Oeste 0 1005.4 1.5 90
2019-06-23 05:00:00 16.9 18 Oeste 30 Oeste 0 1004 -0.8 87
2019-06-23 04:00:00 16.8 0 Calma 8 Oeste 0 1003.6 -1.6 89
2019-06-23 03:00:00 17 2 Sudoeste 19 Oeste 0 1003.9 -1.2 89
2019-06-23 02:00:00 17 10 Oeste 39 Oeste 0 1004.8 -0.4 89
2019-06-23 01:00:00 17.1 23 Oeste 45 Oeste 0 1005.2 -0.2 90
2019-06-23 00:00:00 18.2 0 Calma 4 Sudoeste 0 1005.1 -0.5 89
2019-06-22 23:00:00 18.8 3 Este 6 Sudeste 0 1005.2 -0.5 89
2019-06-22 22:00:00 19.4 2 Sudeste 5 Sudeste 0 1005.4 -0.7 88
2019-06-22 21:00:00 20 2 Este 12 Sudeste 0 1005.6 -0.7 85
2019-06-22 20:00:00 20.9 5 Sudeste 20 Este 0 1005.7 -1 83
2019-06-22 19:00:00 19.5 8 Este 20 Este 0 1006.1 -1.1 84
2019-06-22 18:00:00 19.4 13 Este 24 Este 0 1006.3 -1.4 85
2019-06-22 17:00:00 19.2 13 Este 27 Este 0 1006.7 -1.7 86
2019-06-22 16:00:00 19.6 13 Este 26 Este 0 1007.2 -1.7 84
2019-06-22 15:00:00 19 14 Este 25 Nordeste 0 1007.7 -1.7 86
2019-06-22 14:00:00 18.9 17 Este 25 Este 0 1008.4 -1.2 85
2019-06-22 13:00:00 18 13 Este 18 Nordeste 0 1008.9 -1.4 85
2019-06-22 12:00:00 18.2 12 Nordeste 17 Nordeste 0 1009.4 -1 81
2019-06-22 11:00:00 17.9 4 Este 7 Este 0 1009.6 -1 82
2019-06-22 10:00:00 15.5 0 Calma 9 Este 0 1010.3 -0.9 91
2019-06-22 09:00:00 13.5 7 Sur 10 Sur 0 1010.4 -0.9 92
2019-06-22 08:00:00 12.4 9 Sudoeste 13 Sudoeste 0 1010.6 -1.2 93
2019-06-22 07:00:00 10.9 11 Sudoeste 13 Sudoeste 0 1011.2 -1.5 93
2019-06-22 06:00:00 11.1 10 Sur 13 Sur 0 1011.3 -2.2 92
2019-06-22 05:00:00 11.4 8 Sur 14 Sur 0 1011.8 -2.7 92
2019-06-22 04:00:00 12.1 7 Sur 10 Sur 0 1012.7 -2.3 91
2019-06-22 03:00:00 12.7 8 Sur 10 Sur 0 1013.5 -2.2 91
2019-06-22 02:00:00 13.4 5 Sur 14 Sudeste 0 1014.5 -1.7 90
2019-06-22 01:00:00 14.3 7 Este 13 Este 0 1015 -1.2 88
2019-06-22 00:00:00 14.7 6 Sudeste 14 Este 0 1015.7 -0.5 87
2019-06-21 23:00:00 15.5 7 Sudeste 18 Este 0 1016.2 0.3 85
2019-06-21 22:00:00 16 6 Este 18 Este 0 1016.2 0.6 83
2019-06-21 21:00:00 16.3 12 Este 18 Este 0 1016.2 0.3 82
2019-06-21 20:00:00 16.7 10 Nordeste 20 Nordeste 0 1015.9 0 79
2019-06-21 19:00:00 16.9 15 Nordeste 21 Este 0 1015.6 -0.6 78
2019-06-21 18:00:00 17.1 12 Nordeste 21 Nordeste 0 1015.9 -0.5 78
2019-06-21 17:00:00 17.9 10 Nordeste 29 Nordeste 0 1015.9 -0.6 76
2019-06-21 16:00:00 17.5 11 Nordeste 21 Nordeste 0 1016.2 -0.2 78
2019-06-21 15:00:00 17.2 11 Nordeste 19 Nordeste 0.1 1016.4 -0.3 78
2019-06-21 14:00:00 17.2 8 Nordeste 15 Nordeste 0 1016.5 -0.2 81
2019-06-21 13:00:00 17 9 Nordeste 14 Este 0 1016.4 -0.2 82
2019-06-21 12:00:00 15.8 5 Nordeste 12 Sudeste 0 1016.7 0.5 88
2019-06-21 11:00:00 15.4 4 Sur 10 Este 0 1016.7 1 92
2019-06-21 10:00:00 13.9 4 Este 19 Este 0 1016.6 1.8 92
2019-06-21 09:00:00 13.3 10 Nordeste 23 Nordeste 0.9 1016.2 2.1 92
2019-06-21 08:00:00 13.6 12 Nordeste 28 Este 0.2 1015.7 1.7 91
2019-06-21 07:00:00 14 19 Nordeste 29 Este 0.3 1014.8 0.7 91
2019-06-21 06:00:00 14.4 15 Nordeste 29 Nordeste 0.9 1014.1 -0.2 92
2019-06-21 05:00:00 14.6 18 Este 26 Este 0.8 1014 -0.5 92
2019-06-21 04:00:00 14.2 4 Sudeste 10 Sudoeste 0.8 1014.1 -0.4 92
2019-06-21 03:00:00 14.2 2 Sur 7 Sur 1.5 1014.3 -0.4 92
2019-06-21 02:00:00 14.2 5 Sur 9 Sur 0.5 1014.5 0.1 92
2019-06-21 01:00:00 14.2 4 Sudeste 15 Sudeste 1.7 1014.5 0.9 92
2019-06-21 00:00:00 14.3 9 Este 25 Este 0.7 1014.7 1.2 92
2019-06-20 23:00:00 15.3 8 Este 17 Nordeste 1.4 1014.4 1.1 92
2019-06-20 22:00:00 14.8 12 Nordeste 21 Este 0.9 1013.6 0.6 92
2019-06-20 21:00:00 15.8 12 Nordeste 20 Nordeste 0.2 1013.5 0.1 92
2019-06-20 20:00:00 15.3 9 Noroeste 19 Noroeste 1 1013.3 0.2 92
2019-06-20 19:00:00 15.8 4 Oeste 10 Oeste 0 1013 -0.3 92
2019-06-20 18:00:00 15.5 4 Sudoeste 8 Sudoeste 0 1013.4 -0.1 92
2019-06-20 17:00:00 15.7 3 Sudoeste 9 Oeste 0.2 1013.1 -0.4 92
2019-06-20 16:00:00 15.5 5 Oeste 11 Noroeste 0 1013.3 -0.4 92
2019-06-20 15:00:00 16.1 4 Oeste 10 Noroeste 0 1013.5 0 92
2019-06-20 14:00:00 16.3 4 Noroeste 9 Noroeste 0 1013.5 0.3 92
2019-06-20 13:00:00 15.9 0 Calma 6 Noroeste 0 1013.7 0.3 92
2019-06-20 12:00:00 14.8 0 Calma 9 Norte 0.1 1013.5 0.4 93
2019-06-20 11:00:00 15 3 Norte 8 Noroeste 1 1013.2 0.1 93
2019-06-20 10:00:00 14.9 0 Calma 6 Sur 0.5 1013.4 0.4 93
2019-06-20 09:00:00 14.9 4 Sur 8 Sur 1 1013.1 0.2 92
2019-06-20 08:00:00 14.8 3 Sudeste 6 Norte 1 1013.1 0.2 92
2019-06-20 07:00:00 14.7 2 Norte 9 Noroeste 0.6 1013 0.1 92
2019-06-20 06:00:00 14.9 2 Oeste 9 Sur 0.2 1012.9 -0.2 92
2019-06-20 05:00:00 15.1 4 Sur 8 Sur 0.1 1012.9 -0.3 92
2019-06-20 04:00:00 15 2 Sudoeste 5 Sudoeste 0 1012.9 -0.4 92
2019-06-20 03:00:00 15.2 0 Calma 8 Sur 0 1013.1 -0.2 92
2019-06-20 02:00:00 15.2 5 Oeste 13 Oeste 0 1013.2 0.1 92
2019-06-20 01:00:00 15.3 2 Sudoeste 9 Sudoeste 0 1013.3 0.8 92
2019-06-20 00:00:00 15.4 3 Oeste 15 Oeste 0.1 1013.3 1 92
2019-06-19 23:00:00 15.6 2 Sudoeste 8 Sudoeste 0 1013.1 1.2 92
2019-06-19 22:00:00 15.6 3 Sudoeste 9 Sudoeste 0.7 1012.5 1.2 92
2019-06-19 21:00:00 15.6 2 Sudoeste 24 Oeste 5.9 1012.3 1 91
2019-06-19 20:00:00 16.9 12 Oeste 21 Noroeste 0 1011.9 0.9 90
2019-06-19 19:00:00 17.6 14 Noroeste 20 Noroeste 0 1011.3 0.6 87
2019-06-19 18:00:00 18.5 5 Norte 12 Norte 0 1011.3 1.1 83
2019-06-19 17:00:00 18.8 4 Nordeste 11 Nordeste 0 1011 0.7 83
2019-06-19 16:00:00 19.2 5 Nordeste 10 Nordeste 0 1010.7 0.8 81
2019-06-19 15:00:00 19.3 8 Nordeste 10 Nordeste 0 1010.2 0.6 86
2019-06-19 14:00:00 18.8 7 Nordeste 12 Norte 0 1010.3 1 86
2019-06-19 13:00:00 19.1 6 Nordeste 9 Nordeste 0 1009.9 0.8 86
2019-06-19 12:00:00 18 3 Norte 6 Norte 0 1009.6 1.4 88
2019-06-19 11:00:00 18 2 Norte 15 Noroeste 0 1009.3 1.6 89
2019-06-19 10:00:00 17.3 13 Noroeste 24 Oeste 0 1009.1 1.6 88
2019-06-19 09:00:00 16.7 5 Noroeste 14 Oeste 0 1008.2 0.9 88
2019-06-19 08:00:00 13.9 10 Sudoeste 14 Sudoeste 0 1007.7 0.8 91
2019-06-19 07:00:00 13 11 Sudoeste 13 Sudoeste 0 1007.5 0.9 91
2019-06-19 06:00:00 12.8 10 Sur 11 Sur 0 1007.3 0.7 91
2019-06-19 05:00:00 12.6 9 Sudoeste 12 Sudoeste 0 1006.9 0.1 92
2019-06-19 04:00:00 13.5 5 Sudoeste 13 Sur 0 1006.6 -0.2 91
2019-06-19 03:00:00 13.6 7 Sudoeste 12 Sudoeste 0 1006.6 -0.2 92
2019-06-19 02:00:00 14.2 4 Sudoeste 8 Sudoeste 0 1006.8 -0.2 92
2019-06-19 01:00:00 14.9 2 Noroeste 15 Sur 0 1006.8 0 92
2019-06-19 00:00:00 15.3 10 Sur 11 Sur 0 1006.8 0.3 92
2019-06-18 23:00:00 15.7 4 Sudeste 6 Este 0 1007 1.5 91
2019-06-18 22:00:00 16 4 Noroeste 8 Oeste 0 1006.8 1.5 91
2019-06-18 21:00:00 16.1 8 Oeste 13 Noroeste 0 1006.5 0.5 90
2019-06-18 20:00:00 17.3 3 Nordeste 10 Norte 0 1005.5 -0.2 90
2019-06-18 19:00:00 17.3 4 Norte 16 Noroeste 0 1005.3 -0.2 90
2019-06-18 18:00:00 16.8 10 Noroeste 18 Norte 0 1006 0.5 90
2019-06-18 17:00:00 16.8 9 Noroeste 22 Oeste 0 1005.7 0.5 90
2019-06-18 16:00:00 17.1 13 Noroeste 24 Noroeste 0 1005.5 1.1 90
2019-06-18 15:00:00 17 15 Noroeste 31 Noroeste 0 1005.5 1.1 90
2019-06-18 14:00:00 17.6 24 Noroeste 30 Noroeste 0 1005.2 0.8 90
2019-06-18 13:00:00 18.6 8 Norte 15 Norte 0 1004.4 -0.4 89
2019-06-18 12:00:00 17.2 7 Norte 17 Norte 0 1004.4 -1.2 90
2019-06-18 11:00:00 17.3 5 Norte 15 Norte 0 1004.4 -1.2 89
2019-06-18 10:00:00 16.9 4 Nordeste 8 Nordeste 0 1004.8 -1 87
2019-06-18 09:00:00 16.9 0 Calma 11 Sudoeste 0 1005.6 0 91
2019-06-18 08:00:00 13.9 8 Sur 13 Sur 0 1005.6 -0.2 93
2019-06-18 07:00:00 13.5 5 Sudoeste 12 Sudoeste 0 1005.8 -0.3 93
2019-06-18 06:00:00 13.7 5 Sudoeste 14 Sudoeste 0 1005.6 -2.2 93
2019-06-18 05:00:00 14.1 0 Calma 9 Sur 0 1005.8 -2.8 93
2019-06-18 04:00:00 13.9 6 Sudeste 18 Sudeste 0 1006.1 -3.7 93
2019-06-18 03:00:00 14 8 Sur 10 Sur 0 1007.8 -2.3 92
2019-06-18 02:00:00 14.8 5 Sur 10 Sur 0 1008.6 -1.2 92
2019-06-18 01:00:00 15 5 Sur 13 Oeste 0 1009.8 0.2 91
2019-06-18 00:00:00 15.5 2 Sudoeste 13 Oeste 0 1010.1 0 90
2019-06-17 23:00:00 15.6 6 Oeste 13 Oeste 0 1009.8 -0.5 90
2019-06-17 22:00:00 15.7 6 Oeste 12 Oeste 0 1009.6 -0.5 89
2019-06-17 21:00:00 16.1 6 Oeste 13 Oeste 0 1010.1 -0.2 89
2019-06-17 20:00:00 16.2 9 Oeste 18 Oeste 0 1010.3 0.2 89
2019-06-17 19:00:00 16.2 12 Oeste 19 Oeste 0 1010.1 0.1 89
2019-06-17 18:00:00 16.5 10 Noroeste 18 Noroeste 0 1010.3 0.4 88
2019-06-17 17:00:00 16.6 10 Noroeste 14 Noroeste 0 1010.1 -0.1 88
2019-06-17 16:00:00 16.9 7 Noroeste 19 Noroeste 0 1010 -0.7 87
2019-06-17 15:00:00 16.5 9 Norte -- -- 0 1009.9 -1.4 87
2019-06-17 14:00:00 17.7 10 Norte 13 Norte 0 1010.2 -1.4 86
2019-06-17 13:00:00 16.6 8 Norte 12 Norte 0 1010.7 -1.1 87
2019-06-17 12:00:00 16 5 Norte 13 Norte 0 1011.3 -0.6 90
2019-06-17 11:00:00 15.8 6 Norte 12 Norte 0 1011.6 -0.3 90
2019-06-17 10:00:00 14.9 4 Norte 9 Norte 0 1011.8 -0.5 91
2019-06-17 09:00:00 15 2 Sudoeste 7 Sudeste 0 1011.9 -0.7 91
2019-06-17 08:00:00 15 0 Calma 8 Sur 0 1011.9 -1 91
2019-06-17 07:00:00 14.9 3 Sudoeste 7 Sudoeste 0 1012.3 -1.1 91
2019-06-17 06:00:00 14.8 3 Sur 7 Sudoeste 0 1012.6 -1.3 91
2019-06-17 05:00:00 14.9 3 Sudoeste 6 Sudoeste 0 1012.9 -1.5 91
2019-06-17 04:00:00 14.8 3 Sudoeste 6 Sudoeste 0 1013.4 -1.3 92
2019-06-17 03:00:00 14.9 0 Calma 5 Sudoeste 0 1013.9 -1.3 92
2019-06-17 02:00:00 14.4 4 Sur 4 Sudoeste 0 1014.4 -0.7 92
2019-06-17 01:00:00 14.8 3 Sur 6 Sudoeste 0 1014.7 0.2 92
2019-06-17 00:00:00 14.9 2 Sur 6 Este 0 1015.2 0.4 91
2019-06-16 23:00:00 15.4 3 Este 10 Nordeste 0 1015.1 0.2 91
2019-06-16 22:00:00 15.7 7 Este 12 Este 0 1014.5 0.1 90
2019-06-16 21:00:00 16.6 7 Nordeste 11 Nordeste 0 1014.8 0.4 87
2019-06-16 20:00:00 17.1 5 Nordeste 12 Este 0 1014.9 0.5 86
2019-06-16 19:00:00 17.8 6 Nordeste 15 Este 0 1014.4 -0.2 85
2019-06-16 18:00:00 18 7 Nordeste 19 Nordeste 0 1014.4 -0.2 85
2019-06-16 17:00:00 18.3 9 Nordeste 19 Este 0 1014.4 -0.7 85
2019-06-16 16:00:00 18.4 9 Nordeste 18 Nordeste 0 1014.6 -0.8 85
2019-06-16 15:00:00 18.3 11 Nordeste 19 Nordeste 0 1014.6 -1.2 84
2019-06-16 14:00:00 18 8 Nordeste 18 Nordeste 0 1015.1 -0.9 84
2019-06-16 13:00:00 17.9 8 Nordeste 14 Nordeste 0 1015.4 -0.9 79
2019-06-16 12:00:00 16.9 6 Nordeste 12 Norte 0 1015.8 -0.6 80
2019-06-16 11:00:00 15.4 5 Norte 9 Norte 0 1016 -0.1 78
2019-06-16 10:00:00 14.9 3 Norte 5 Norte 0 1016.3 0.3 79
2019-06-16 09:00:00 13.7 4 Sudoeste 14 Sudoeste 0 1016.4 0.2 87
2019-06-16 08:00:00 10.6 10 Sudoeste 15 Sudoeste 0 1016.1 -0.3 90
2019-06-16 07:00:00 9.3 13 Sudoeste 18 Sudoeste 0 1016 -0.8 91
2019-06-16 06:00:00 9.6 13 Sudoeste 18 Sudoeste 0 1016.2 -1.1 91
2019-06-16 05:00:00 10.1 11 Sur 15 Sudoeste 0 1016.4 -1.5 91
2019-06-16 04:00:00 10.5 11 Sudoeste 13 Sudoeste 0 1016.8 -1.4 91
2019-06-16 03:00:00 11.4 10 Sur 13 Sur 0 1017.3 -1.2 91
2019-06-16 02:00:00 12.5 9 Sur 11 Sur 0 1017.9 -0.6 91
2019-06-16 01:00:00 14.1 3 Sudeste 9 Sudeste 0 1018.2 0.3 87
2019-06-16 00:00:00 14.6 5 Sudeste 9 Este 0 1018.5 0.5 85
2019-06-15 23:00:00 15.4 4 Este 10 Nordeste 0 1018.5 0.3 82
2019-06-15 22:00:00 15.5 3 Este 6 Nordeste 0 1017.9 0.1 79
2019-06-15 21:00:00 15.7 2 Este 4 Este 0 1018 0.1 77
2019-06-15 20:00:00 16.1 0 Calma 5 Nordeste 0 1018.2 0.6 72
2019-06-15 19:00:00 16.1 0 Calma 10 Noroeste 0 1017.8 0.5 74
2019-06-15 18:00:00 16.1 6 Noroeste 14 Oeste 0 1017.9 0.9 77
2019-06-15 17:00:00 16.4 6 Noroeste 17 Nordeste 0 1017.6 1 75
2019-06-15 16:00:00 16.2 7 Norte 15 Nordeste 0 1017.3 0.8 78
2019-06-15 15:00:00 16.4 8 Norte 17 Norte 0 1017 0.8 79
2019-06-15 14:00:00 16.2 8 Norte 20 Norte 0 1016.6 0.7 77
2019-06-15 13:00:00 16.4 7 Norte 19 Oeste 0 1016.5 0.9 75
2019-06-15 12:00:00 16.7 15 Noroeste 21 Noroeste 0 1016.2 1.2 81
2019-06-15 11:00:00 16.7 6 Noroeste 14 Oeste 0 1015.9 1.4 81
2019-06-15 10:00:00 16.9 3 Sur 11 Sudoeste 0 1015.6 1.4 80
2019-06-15 09:00:00 14.5 6 Sur 36 Sur 0 1015 1.2 90
2019-06-15 08:00:00 12.2 10 Sudoeste 13 Sudoeste 0 1014.5 0.7 92
2019-06-15 07:00:00 11.8 9 Sudoeste 13 Sudoeste 0 1014.2 0.4 92
2019-06-15 06:00:00 12.3 8 Sur 10 Sur 0 1013.8 0 92
2019-06-15 05:00:00 12.5 8 Sur 12 Sur 0 1013.8 0.3 92
2019-06-15 04:00:00 12.7 6 Sudoeste 11 Sur 0 1013.8 0.2 92
2019-06-15 03:00:00 12.8 5 Sudoeste 9 Sudoeste 0.1 1013.8 0.5 92
2019-06-15 02:00:00 12.9 4 Sudoeste 11 Oeste 0 1013.5 0.6 92
2019-06-15 01:00:00 12.9 6 Sudoeste 11 Sudoeste 0 1013.6 1.6 91
2019-06-15 00:00:00 13.2 6 Sur 8 Sur 0 1013.3 2.1 91
2019-06-14 23:00:00 13.7 3 Sur 5 Sur 0.2 1012.9 2.2 89
2019-06-14 22:00:00 14.4 0 Calma 6 Norte 0 1012 1.7 85
2019-06-14 21:00:00 14.8 4 Norte 8 Norte 0 1011.2 0.8 84
2019-06-14 20:00:00 15.1 5 Nordeste 10 Norte 0 1010.7 0.3 83
2019-06-14 19:00:00 15.5 5 Norte 7 Norte 0 1010.3 0.2 82
2019-06-14 18:00:00 15.6 0 Calma 9 Norte 0 1010.4 0.7 86
2019-06-14 17:00:00 14.4 6 Norte 17 Norte 0 1010.4 1 87
2019-06-14 16:00:00 14.3 13 Norte 19 Norte 0 1010.1 0.6 87
2019-06-14 15:00:00 14.8 11 Nordeste 18 Norte 0 1009.7 0.2 86
2019-06-14 14:00:00 15.3 7 Norte 16 Nordeste 0 1009.4 0 84
2019-06-14 13:00:00 16.1 7 Noroeste 18 Norte 0 1009.5 0.2 84
2019-06-14 12:00:00 14.7 4 Noroeste 12 Norte 0 1009.5 0.5 85
2019-06-14 11:00:00 14.5 6 Noroeste 9 Noroeste 0 1009.4 0.6 88
2019-06-14 10:00:00 12.7 0 Calma 9 Sudoeste 0 1009.3 0.6 91
2019-06-14 09:00:00 10.9 7 Sudoeste 14 Sudoeste 0 1009 0.6 93
2019-06-14 08:00:00 9.4 10 Sudoeste 14 Sudoeste 0 1008.8 0.3 93
2019-06-14 07:00:00 8.3 11 Sudoeste 15 Sudoeste 0 1008.7 -0.1 93
2019-06-14 06:00:00 8.6 11 Sudoeste 16 Sudoeste 0 1008.4 -0.8 93
2019-06-14 05:00:00 9.1 12 Sur 14 Sur 0 1008.5 -1.3 93
2019-06-14 04:00:00 9.6 10 Sur 14 Sur 0 1008.8 -1.5 93
2019-06-14 03:00:00 10.3 9 Sur 12 Sudoeste 0 1009.2 -1.1 93
2019-06-14 02:00:00 11 7 Sur 9 Sur 0 1009.8 -0.5 93
2019-06-14 01:00:00 11.9 6 Sur 8 Sur 0 1010.3 0.6 92
2019-06-14 00:00:00 12.7 6 Sur 8 Sudoeste 0 1010.3 0.8 91
2019-06-13 23:00:00 13 5 Sur 8 Sudoeste 0 1010.3 1.4 90
2019-06-13 22:00:00 13.3 2 Sudoeste 11 Sudoeste 0 1009.7 1.2 90
2019-06-13 21:00:00 13.7 0 Calma 10 Sudoeste 0 1009.5 1.2 88
2019-06-13 20:00:00 14.3 5 Norte 11 Norte 0 1008.9 0.9 86
2019-06-13 19:00:00 14.4 8 Norte 14 Norte 0 1008.5 0.6 86
2019-06-13 18:00:00 14.5 8 Norte 17 Norte 0 1008.3 0.6 84
2019-06-13 17:00:00 14 13 Norte 17 Norte 0 1008 0.3 86
2019-06-13 16:00:00 14.2 12 Norte 18 Norte 0 1007.9 0.4 85
2019-06-13 15:00:00 14.4 12 Norte 16 Norte 0 1007.7 0.1 85
2019-06-13 14:00:00 14.7 9 Nordeste 17 Norte 0 1007.7 0 81
2019-06-13 13:00:00 14.9 9 Nordeste 17 Norte 0 1007.5 -0.4 81
2019-06-13 12:00:00 14.6 6 Nordeste 12 Nordeste 0 1007.6 -0.3 84
2019-06-13 11:00:00 14.5 7 Nordeste 10 Nordeste 0 1007.7 -0.2 85
2019-06-13 10:00:00 13.9 0 Calma 7 Sur 0 1007.9 0 89
2019-06-13 09:00:00 12.3 6 Sur 9 Sudoeste 0 1007.9 0.2 91
2019-06-13 08:00:00 11.1 8 Sudoeste 10 Sudoeste 0 1007.9 0 92
2019-06-13 07:00:00 10.6 8 Sudoeste 12 Sudoeste 0 1007.9 -0.2 92
2019-06-13 06:00:00 10.7 8 Sudoeste 10 Sudoeste 0 1007.7 -1 92
2019-06-13 05:00:00 10.7 9 Sudoeste 11 Sur 0 1007.9 -1.3 92
2019-06-13 04:00:00 10.9 8 Sur 10 Sudoeste 0 1008.1 -1.6 92
2019-06-13 03:00:00 11.6 6 Sur 10 Sur 0 1008.7 -1.6 91
2019-06-13 02:00:00 12.7 4 Sudoeste 6 Sudoeste 0 1009.2 -1.3 89
2019-06-13 01:00:00 13 4 Sudoeste 8 Sur 0 1009.7 -0.6 88
2019-06-13 00:00:00 13.2 5 Sur 9 Sudeste 0 1010.3 0 88
2019-06-12 23:00:00 13.4 2 Sudoeste 14 Oeste 0 1010.5 0.3 87
2019-06-12 22:00:00 13.5 9 Oeste 17 Oeste 0 1010.3 0.2 87
2019-06-12 21:00:00 13.8 11 Noroeste 19 Oeste 0 1010.3 0 84
2019-06-12 20:00:00 14.1 12 Noroeste 22 Noroeste 0 1010.2 -0.1 83
2019-06-12 19:00:00 14.7 14 Noroeste 27 Noroeste 0 1010.1 -0.2 78
2019-06-12 18:00:00 15 19 Noroeste 35 Noroeste 0 1010.3 -0.1 77
2019-06-12 17:00:00 15 22 Noroeste 34 Noroeste 0 1010.3 -0.3 76
2019-06-12 16:00:00 14.5 18 Noroeste 36 Noroeste 0 1010.3 -0.1 78
2019-06-12 15:00:00 14.9 25 Noroeste 42 Noroeste 0 1010.4 -0.3 75
2019-06-12 14:00:00 14.5 31 Noroeste 41 Noroeste 0 1010.6 0.2 75
2019-06-12 13:00:00 15 21 Noroeste 36 Oeste 0 1010.4 0 65
2019-06-12 12:00:00 14 21 Oeste 38 Oeste 0 1010.7 0.4 65
2019-06-12 11:00:00 14 26 Oeste 40 Oeste 0 1010.4 0.3 68
2019-06-12 10:00:00 14.1 22 Oeste 37 Oeste 0 1010.4 0.7 65
2019-06-12 09:00:00 13.4 18 Oeste 35 Oeste 0 1010.3 0.7 62
2019-06-12 08:00:00 13 18 Oeste 35 Oeste 0 1010.1 0.1 62
2019-06-12 07:00:00 12.8 19 Oeste 37 Oeste 0 1009.7 -0.8 63
2019-06-12 06:00:00 12.7 18 Oeste 35 Oeste 0 1009.6 -1.3 64
2019-06-12 05:00:00 12.5 16 Oeste 35 Oeste 0 1010 -1.2 66
2019-06-12 04:00:00 12.6 16 Oeste 42 Oeste 0 1010.5 -1.2 66
2019-06-12 03:00:00 12.7 21 Oeste 42 Oeste 0 1010.9 -1.2 67
2019-06-12 02:00:00 12.6 20 Oeste 36 Oeste 0 1011.2 -1.5 69
2019-06-12 01:00:00 12.6 18 Oeste 39 Oeste 0 1011.7 -0.9 68
2019-06-12 00:00:00 12.6 15 Oeste 34 Oeste 0 1012.1 -0.8 74
2019-06-11 23:00:00 12.3 7 Oeste 37 Oeste 0 1012.7 -0.2 81
2019-06-11 22:00:00 13.1 21 Oeste 40 Oeste 0 1012.6 -0.3 84
2019-06-11 21:00:00 13.3 27 Oeste 48 Oeste 0 1012.9 -0.3 83
2019-06-11 20:00:00 13.9 27 Oeste 46 Oeste 0 1012.9 -0.5 84
2019-06-11 19:00:00 15 29 Oeste 47 Oeste 0 1012.9 -0.6 78
2019-06-11 18:00:00 15.2 26 Noroeste 44 Noroeste 0 1013.2 -0.5 76
2019-06-11 17:00:00 15.3 29 Oeste 46 Noroeste 0 1013.4 -0.4 77
2019-06-11 16:00:00 14.5 28 Noroeste 46 Noroeste 0 1013.5 0.1 78
2019-06-11 15:00:00 14.7 27 Noroeste 42 Noroeste 0 1013.7 0.3 79
2019-06-11 14:00:00 13.2 27 Noroeste 49 Oeste 0 1013.8 0.6 81
2019-06-11 13:00:00 13.7 24 Oeste 41 Oeste 0 1013.4 0.3 84
2019-06-11 12:00:00 12.2 5 Oeste 31 Oeste 1.3 1013.4 1 88
2019-06-11 11:00:00 11.6 12 Oeste 22 Oeste 0.6 1013.2 0.9 90
2019-06-11 10:00:00 11.5 11 Oeste 23 Oeste 1.6 1013.1 1.2 90
2019-06-11 09:00:00 10.3 6 Sudoeste 33 Oeste 1.3 1012.4 0.8 90
2019-06-11 08:00:00 9.9 3 Sudoeste 35 Oeste 3.5 1012.3 0.3 90
2019-06-11 07:00:00 10.4 3 Sudoeste 32 Oeste 0.5 1011.9 -0.2 91
2019-06-11 06:00:00 10.5 3 Sudoeste 28 Oeste 0.1 1011.6 -0.8 91
2019-06-11 05:00:00 10.8 10 Oeste 36 Oeste 0.2 1012 -1 92
2019-06-11 04:00:00 10.4 4 Sudoeste 20 Oeste 1.8 1012.1 -1.6 92
2019-06-11 03:00:00 10.7 6 Oeste 21 Oeste 1.6 1012.4 -1.4 92
2019-06-11 02:00:00 11.1 4 Sudoeste 13 Oeste 0.9 1013 -1.3 92
2019-06-11 01:00:00 11 10 Noroeste 23 Oeste 1.1 1013.7 0.2 91
2019-06-11 00:00:00 10.9 3 Sudoeste 24 Noroeste 0.4 1013.8 -0.2 90
2019-06-10 23:00:00 11.1 17 Noroeste 36 Noroeste 0.8 1014.3 0 90
2019-06-10 22:00:00 12.4 15 Noroeste 24 Noroeste 0.2 1013.5 -0.9 87
2019-06-10 21:00:00 13.2 3 Oeste 19 Oeste 0.1 1014 -0.8 85
2019-06-10 20:00:00 13.5 11 Oeste 19 Oeste 0 1014.3 -0.7 82
2019-06-10 19:00:00 13.9 6 Oeste 13 Oeste 0 1014.4 -0.8 79
2019-06-10 18:00:00 14.1 7 Noroeste 16 Noroeste 0 1014.8 -0.6 76
2019-06-10 17:00:00 14.2 12 Noroeste 19 Noroeste 0 1015 -0.8 77
2019-06-10 16:00:00 14.7 7 Noroeste 19 Norte 0 1015.2 -0.9 78
2019-06-10 15:00:00 14.6 10 Norte 18 Nordeste 0 1015.4 -1 74
2019-06-10 14:00:00 14.4 7 Norte 19 Norte 0 1015.8 -0.6 79
2019-06-10 13:00:00 14.9 6 Norte 15 Norte 0 1016.1 -0.6 78
2019-06-10 12:00:00 14.3 5 Noroeste 19 Noroeste 0 1016.4 -0.1 86
2019-06-10 11:00:00 13.8 5 Noroeste 9 Oeste 0 1016.4 -0.2 91
2019-06-10 10:00:00 12.1 4 Sur 10 Sudoeste 0 1016.7 0.2 93
2019-06-10 09:00:00 10.7 7 Sur 12 Sudoeste 0 1016.5 0.1 93
2019-06-10 08:00:00 9.6 7 Sudoeste 13 Sudoeste 0 1016.6 0.2 93
2019-06-10 07:00:00 9.2 9 Sudoeste 15 Sudoeste 0 1016.5 -0.4 94
2019-06-10 06:00:00 8.5 11 Sudoeste 16 Sudoeste 0 1016.4 -1 94
2019-06-10 05:00:00 8.6 12 Sudoeste 16 Sudoeste 0 1016.4 -1.3 93
2019-06-10 04:00:00 9.1 10 Sudoeste 14 Sudoeste 0 1016.9 -1.3 93
2019-06-10 03:00:00 10 9 Sudoeste 12 Sudoeste 0 1017.4 -1.1 93
2019-06-10 02:00:00 10.7 8 Sur 11 Sur 0 1017.7 -0.7 92
2019-06-10 01:00:00 11.4 7 Sudoeste 10 Sudoeste 0 1018.2 0.4 92
2019-06-10 00:00:00 11.7 5 Sudoeste 10 Sudoeste 0 1018.5 1 93
2019-06-09 23:00:00 11.6 5 Sudoeste 11 Sur 0 1018.4 1 93
2019-06-09 22:00:00 11.5 4 Sudoeste 12 Sudoeste 0 1017.8 0.9 93
2019-06-09 21:00:00 11.8 4 Oeste 13 Oeste 0.3 1017.5 0.7 93
2019-06-09 20:00:00 12.1 3 Norte 18 Noroeste 0.1 1017.4 1 92
2019-06-09 19:00:00 12.3 6 Norte 17 Norte 0 1016.9 0.7 93
2019-06-09 18:00:00 12 9 Norte 19 Norte 0.2 1016.8 0.8 94
2019-06-09 17:00:00 12 11 Noroeste 31 Norte 1.2 1016.4 0.7 94
2019-06-09 16:00:00 12.2 9 Norte 26 Norte 0.3 1016.2 0.7 93
2019-06-09 15:00:00 12.8 8 Norte 24 Norte 0 1016 0.7 92
2019-06-09 14:00:00 12.9 12 Norte 23 Norte 0 1015.7 0.9 92
2019-06-09 13:00:00 13 14 Norte 23 Norte 0 1015.5 0.4 93
2019-06-09 12:00:00 13.2 14 Norte 18 Norte 0 1015.3 0.5 93
2019-06-09 11:00:00 13.3 13 Nordeste 17 Nordeste 0.5 1014.8 0 91
2019-06-09 10:00:00 13.5 4 Sudeste 11 Este 0 1015.1 0.5 90
2019-06-09 09:00:00 13.9 5 Este 11 Sudeste 0 1014.8 0.2 89
2019-06-09 08:00:00 13.6 4 Este 13 Este 0 1014.8 -0.1 89
2019-06-09 07:00:00 13.3 7 Este 14 Este 0 1014.6 -0.6 90
2019-06-09 06:00:00 13.2 6 Sur 9 Sur 0 1014.6 -1 90
2019-06-09 05:00:00 13.3 5 Sur 9 Sudeste 0 1014.9 -1.5 90
2019-06-09 04:00:00 13.3 5 Sudeste 10 Este 0 1015.2 -1.9 88
2019-06-09 03:00:00 13.5 6 Sudeste 17 Este 0 1015.6 -2 88
2019-06-09 02:00:00 13.7 7 Sudeste 12 Este 0 1016.4 -1.7 87
2019-06-09 01:00:00 13.7 5 Sudeste 12 Sudeste 0 1017.1 -0.8 87
2019-06-09 00:00:00 13.8 6 Sudeste 14 Nordeste 0 1017.6 0 87
2019-06-08 23:00:00 14.3 8 Este 17 Este 0 1018.1 0.4 84
2019-06-08 22:00:00 14.4 9 Nordeste 17 Este 0 1017.9 0.2 82
2019-06-08 21:00:00 14.5 8 Nordeste 16 Nordeste 0 1017.6 0 82
2019-06-08 20:00:00 14.7 8 Nordeste 18 Este 0 1017.7 0.1 81
2019-06-08 19:00:00 14.8 11 Nordeste 25 Este 0 1017.7 -0.2 81
2019-06-08 18:00:00 14.9 14 Nordeste 28 Nordeste 0 1017.6 -0.7 81
2019-06-08 17:00:00 14.8 19 Nordeste 33 Este 0 1017.6 -0.9 82
2019-06-08 16:00:00 15.4 21 Nordeste 32 Este 0 1017.9 -0.8 81
2019-06-08 15:00:00 15.4 22 Nordeste 32 Nordeste 0 1018.3 -0.9 79
2019-06-08 14:00:00 15.4 19 Nordeste 30 Este 0 1018.5 -1.1 78
2019-06-08 13:00:00 15.8 18 Nordeste 28 Este 0 1018.7 -1.3 75
2019-06-08 12:00:00 15.7 15 Nordeste 23 Nordeste 0 1019.2 -0.9 72
2019-06-08 11:00:00 15.5 9 Nordeste 17 Este 0.1 1019.6 -0.5 72
2019-06-08 10:00:00 15 5 Nordeste 10 Este 0 1020 0.2 75
2019-06-08 09:00:00 13.4 6 Sur 12 Sudoeste 0 1020.1 0.5 89
2019-06-08 08:00:00 11.3 8 Sudoeste 12 Sudoeste 0 1020.1 0.7 91
2019-06-08 07:00:00 11.1 9 Sudoeste 11 Sudoeste 0 1019.8 0.5 92
2019-06-08 06:00:00 11.5 8 Sudoeste 12 Sudoeste 0 1019.6 0.1 91
2019-06-08 05:00:00 11.8 7 Sudoeste 10 Sudoeste 0 1019.4 -0.1 91
2019-06-08 04:00:00 11.9 6 Sudoeste 9 Sur 0 1019.3 -0.1 91
2019-06-08 03:00:00 12.1 6 Sur 9 Sur 0 1019.5 0.3 91
2019-06-08 02:00:00 12.2 6 Sur 8 Sur 0 1019.5 0.8 92
2019-06-08 01:00:00 12.3 6 Sur 10 Sudoeste 0 1019.4 1.2 91
2019-06-08 00:00:00 12.2 5 Sudoeste 11 Sudoeste 0 1019.2 1.6 90
2019-06-07 23:00:00 12.4 5 Sur 12 Sur 0 1018.7 2.1 90
2019-06-07 22:00:00 12.6 4 Sur 22 Oeste 0.4 1018.2 2.3 90
2019-06-07 21:00:00 13 13 Oeste 34 Oeste 0.4 1017.6 2.6 85
2019-06-07 20:00:00 14.3 22 Noroeste 35 Noroeste 0 1016.6 2.6 75
2019-06-07 19:00:00 14.5 26 Noroeste 41 Oeste 0 1015.9 3.1 69
2019-06-07 18:00:00 16.5 27 Noroeste 50 Noroeste 0 1015 3.5 65
2019-06-07 17:00:00 15.8 33 Noroeste 52 Noroeste 0 1014 3.2 64
2019-06-07 16:00:00 16.1 38 Noroeste 59 Noroeste 0 1012.8 3.4 66
2019-06-07 15:00:00 15.9 47 Noroeste 65 Noroeste 0 1011.5 2.9 67
2019-06-07 14:00:00 16.4 43 Noroeste 69 Noroeste 0 1010.8 3.5 66
2019-06-07 13:00:00 17.2 37 Noroeste 61 Oeste 0 1009.4 3.3 48
2019-06-07 12:00:00 17.4 31 Oeste 64 Oeste 0 1008.6 3.7 49
2019-06-07 11:00:00 16.7 36 Oeste 60 Oeste 0 1007.3 3.4 47
2019-06-07 10:00:00 16.3 32 Oeste 56 Oeste 0 1006.1 3.8 51
2019-06-07 09:00:00 15.2 21 Oeste 39 Oeste 0 1004.9 4.1 56
2019-06-07 08:00:00 13.3 8 Oeste 20 Oeste 0 1003.9 3.9 65
2019-06-07 07:00:00 11 9 Sudoeste 13 Oeste 0 1002.3 3.1 82
2019-06-07 06:00:00 11.7 7 Oeste 17 Oeste 0 1000.8 2.4 83
2019-06-07 05:00:00 11.9 7 Sudoeste 13 Oeste 0 1000 1.6 91
2019-06-07 04:00:00 13.4 8 Noroeste 12 Sudoeste 0 999.2 1.9 90
2019-06-07 03:00:00 12.4 9 Sudoeste 11 Sur 0 998.4 1.6 90
2019-06-07 02:00:00 13.5 5 Sudoeste 21 Oeste 0 998.4 1 89
2019-06-07 01:00:00 14.2 16 Oeste 23 Oeste 0.1 997.3 1.9 85
2019-06-07 00:00:00 13.9 3 Oeste 27 Este 0.5 996.8 1.7 90
2019-06-06 23:00:00 14.5 18 Oeste 51 Oeste 0.3 997.4 2.1 89
2019-06-06 22:00:00 19 8 Sudoeste 22 Sudoeste 0 995.4 1 56
2019-06-06 21:00:00 19.9 8 Sur 32 Oeste 0 995.1 -0.2 49
2019-06-06 20:00:00 19.8 5 Sudoeste 31 Oeste 0 995.3 -1.3 47
2019-06-06 19:00:00 18.7 13 Oeste 18 Oeste 0 994.4 -3.3 53
2019-06-06 18:00:00 17.9 8 Noroeste 16 Noroeste 0 995.3 -3.5 69
2019-06-06 17:00:00 18.1 14 Noroeste 46 Noroeste 0 996.6 -3.8 68
2019-06-06 16:00:00 23.7 15 Sudeste 42 Sur 0 997.7 -4.8 32
2019-06-06 15:00:00 23.4 15 Sudeste 40 Sudeste 0 998.8 -5.5 34
2019-06-06 14:00:00 21.5 14 Sudeste 40 Sudeste 0 1000.4 -5.2 45
2019-06-06 13:00:00 16.2 27 Nordeste 36 Nordeste 0 1002.5 -4 76
2019-06-06 12:00:00 16.2 21 Nordeste 30 Este 0 1004.3 -2.8 71
2019-06-06 11:00:00 16.5 8 Este 14 Este 0 1005.6 -2.7 65
2019-06-06 10:00:00 14.6 5 Nordeste 12 Este 0 1006.5 -2.4 70
2019-06-06 09:00:00 13.4 6 Este 10 Este 0 1007.1 -2.1 81
2019-06-06 08:00:00 10.9 6 Sur 14 Sudoeste 0 1008.3 -1.3 90
2019-06-06 07:00:00 9.8 10 Sur 13 Sudoeste 0 1008.9 -1.1 90
2019-06-06 06:00:00 10.2 8 Sur 11 Sur 0 1009.2 -1.1 90
2019-06-06 05:00:00 10.8 9 Sur 12 Sur 0 1009.6 -1 88
2019-06-06 04:00:00 11.1 9 Sur 13 Sur 0 1010 -1.1 86
2019-06-06 03:00:00 11.7 6 Sur 13 Sur 0 1010.3 -1.2 84
2019-06-06 02:00:00 11.9 7 Sur 10 Sur 0 1010.6 -0.7 84
2019-06-06 01:00:00 12.3 3 Oeste 24 Oeste 0 1011.1 0.1 80
2019-06-06 00:00:00 12.7 11 Oeste 24 Oeste 0 1011.5 0.9 81
2019-06-05 23:00:00 12.9 4 Sudoeste 7 Sur 0 1011.3 0.9 82
2019-06-05 22:00:00 13.2 5 Oeste 14 Noroeste 0 1011 0.7 82
2019-06-05 21:00:00 13.5 11 Noroeste 26 Noroeste 0 1010.6 0.6 81
2019-06-05 20:00:00 14.4 13 Noroeste 26 Noroeste 0 1010.4 0.1 72
2019-06-05 19:00:00 14.4 18 Oeste 30 Noroeste 0 1010.3 -0.3 67
2019-06-05 18:00:00 14.4 19 Noroeste 32 Noroeste 0 1010 -0.1 68
2019-06-05 17:00:00 13.5 15 Oeste 41 Oeste 0 1010.3 0.3 74
2019-06-05 16:00:00 12.8 28 Noroeste 51 Oeste 0 1010.6 1.4 81
2019-06-05 15:00:00 15.6 20 Oeste 36 Oeste 0 1010.1 1.9 63
2019-06-05 14:00:00 13.4 19 Oeste 54 Noroeste 0 1010 1.8 75
2019-06-05 13:00:00 14.7 35 Noroeste 54 Noroeste 0 1009.2 1.5 77
2019-06-05 12:00:00 14.9 30 Noroeste 47 Noroeste 0 1008.2 1 75
2019-06-05 11:00:00 13.9 28 Noroeste 53 Noroeste 0 1008.2 1.1 85
2019-06-05 10:00:00 13.9 33 Noroeste 47 Noroeste 0 1007.7 0.7 81
2019-06-05 09:00:00 13.4 14 Oeste 32 Oeste 0 1007.2 0.4 84
2019-06-05 08:00:00 12.4 9 Oeste 30 Oeste 0.1 1007.1 0.5 88
2019-06-05 07:00:00 12.3 17 Oeste 31 Oeste 0.3 1007 0.1 90
2019-06-05 06:00:00 12.5 8 Oeste 22 Oeste 0 1006.8 -0.4 85
2019-06-05 05:00:00 12.7 12 Oeste 25 Oeste 0 1006.6 -0.8 85
2019-06-05 04:00:00 12.3 7 Oeste 20 Oeste 0.1 1006.9 -0.9 90
2019-06-05 03:00:00 12.1 5 Sudoeste 13 Sudoeste 0 1007.2 -1.1 90
2019-06-05 02:00:00 12.1 5 Sudoeste 12 Sur 0.2 1007.4 -1.1 90
2019-06-05 01:00:00 12.2 4 Sudoeste 15 Sur 0.2 1007.8 0 90
2019-06-05 00:00:00 12.6 4 Sudoeste 15 Sudoeste 0 1008.3 0.1 90
2019-06-04 23:00:00 12.6 4 Sudoeste 11 Sur 0 1008.5 0.5 90
2019-06-04 22:00:00 12.3 3 Sudoeste 22 Oeste 1.3 1007.8 -0.5 90
2019-06-04 21:00:00 12.7 0 Calma 13 Sur 0.1 1008.2 0.2 91
2019-06-04 20:00:00 12.7 9 Sur 13 Sur 1.2 1008 0.4 90
2019-06-04 19:00:00 13.4 3 Sudoeste 26 Oeste 0 1008.3 1 89
2019-06-04 18:00:00 14.2 8 Oeste 21 Oeste 0.1 1008 1.4 87
2019-06-04 17:00:00 15.2 10 Noroeste 29 Oeste 0 1007.6 1.6 81
2019-06-04 16:00:00 15.4 19 Oeste 44 Noroeste 0 1007.3 2.7 80
2019-06-04 15:00:00 15.6 26 Noroeste 51 Oeste 0 1006.6 1.7 81
2019-06-04 14:00:00 15.8 32 Noroeste 55 Oeste 0 1006 1.3 85
2019-06-04 13:00:00 19.6 3 Sudeste 12 Sur 0 1004.6 0.4 84
2019-06-04 12:00:00 16 3 Norte 15 Noroeste 0 1004.9 1.2 92
2019-06-04 11:00:00 15.4 12 Noroeste 29 Noroeste 0.1 1004.7 0.9 93
2019-06-04 10:00:00 16.7 7 Oeste 13 Oeste 0 1004.2 0.3 93
2019-06-04 09:00:00 16.1 4 Sur 8 Sur 0 1003.7 -0.4 93
2019-06-04 08:00:00 16 0 Calma 6 Noroeste 0 1003.8 -0.8 93
2019-06-04 07:00:00 15.7 3 Sudoeste 6 Sudoeste 0 1003.9 -1 93
2019-06-04 06:00:00 15.7 2 Sudoeste 10 Oeste 0 1004.1 -1 93
2019-06-04 05:00:00 15.8 9 Noroeste 21 Oeste 0 1004.6 -1.1 93
2019-06-04 04:00:00 15.7 14 Oeste 22 Oeste 0 1004.9 -2.2 93
2019-06-04 03:00:00 15.7 9 Oeste 14 Oeste 0 1005.1 -3.1 93
2019-06-04 02:00:00 15.5 4 Sudeste 9 Sudeste 0 1005.7 -3.3 93
2019-06-04 01:00:00 15.9 5 Este 17 Este 0 1007.1 -2.3 93
2019-06-04 00:00:00 16.3 6 Este 15 Este 0 1008.2 -1.4 93
2019-06-03 23:00:00 16.5 5 Este 11 Este 0 1009 -0.7 93
2019-06-03 22:00:00 16.8 2 Este 8 Este 0 1009.4 -0.4 92
2019-06-03 21:00:00 17.3 4 Nordeste 8 Este 0 1009.6 -0.4 91
2019-06-03 20:00:00 17.7 3 Nordeste 10 Nordeste 0 1009.7 -0.6 91
2019-06-03 19:00:00 18.4 5 Nordeste 13 Nordeste 0 1009.8 -0.9 90
2019-06-03 18:00:00 19 8 Nordeste 12 Nordeste 0 1010 -1.5 89
2019-06-03 17:00:00 19 7 Nordeste 14 Este 0 1010.3 -1.6 88
2019-06-03 16:00:00 18.6 6 Nordeste 14 Nordeste 0 1010.7 -1.8 89
2019-06-03 15:00:00 18.7 10 Nordeste 15 Nordeste 0 1011.5 -1.3 89
2019-06-03 14:00:00 19 10 Nordeste 14 Nordeste 0 1011.9 -0.8 89
2019-06-03 13:00:00 18.5 10 Nordeste 13 Nordeste 0 1012.5 -0.4 89
2019-06-03 12:00:00 18.4 6 Norte 10 Este 0 1012.8 -0.1 89
2019-06-03 11:00:00 18.1 6 Norte 9 Norte 0 1012.7 0 88
2019-06-03 10:00:00 16.9 2 Nordeste 8 Sudoeste 0 1012.9 0.5 87
2019-06-03 09:00:00 15.4 5 Sudoeste 10 Sudoeste 0 1012.9 0.6 88
2019-06-03 08:00:00 14.9 6 Sudoeste 12 Sudoeste 0 1012.7 0.7 90
2019-06-03 07:00:00 14.1 8 Sur 11 Sur 0 1012.4 -0.2 91
2019-06-03 06:00:00 14.4 8 Sudoeste 12 Sudoeste 0 1012.3 -0.7 89
2019-06-03 05:00:00 14.2 0 Calma 11 Sur 0 1012 -1.4 91
2019-06-03 04:00:00 13.9 9 Sur 12 Sudoeste 0 1012.6 -1.3 92
2019-06-03 03:00:00 14.4 9 Sur 11 Sur 0 1013 -0.9 91
2019-06-03 02:00:00 15.2 5 Sudoeste 8 Sudoeste 0 1013.4 -0.2 90
2019-06-03 01:00:00 15.5 5 Sudoeste 8 Sudoeste 0 1013.9 0.7 90
2019-06-03 00:00:00 16.2 0 Calma 4 Noroeste 0 1013.9 0.6 88
2019-06-02 23:00:00 16.4 0 Calma 8 Oeste 0 1013.6 0.3 88
2019-06-02 22:00:00 16.3 5 Oeste 7 Oeste 0 1013.2 0 89
2019-06-02 21:00:00 17.1 0 Calma 16 Noroeste 0 1013.3 0.2 90
2019-06-02 20:00:00 18 3 Oeste 14 Noroeste 0 1013.3 0.4 88
2019-06-02 19:00:00 16.8 10 Noroeste 17 Noroeste 0 1013.2 0.6 90
2019-06-02 18:00:00 17.2 12 Noroeste 23 Noroeste 0 1013.1 0.8 90
2019-06-02 17:00:00 17.4 18 Noroeste 28 Noroeste 0 1012.9 0.5 90
2019-06-02 16:00:00 17.4 22 Noroeste 30 Oeste 0 1012.6 0.2 90
2019-06-02 15:00:00 19.1 14 Noroeste 18 Noroeste 0 1012.3 0.3 84
2019-06-02 14:00:00 19.1 13 Noroeste 22 Noroeste 0 1012.4 1 84
2019-06-02 13:00:00 19.8 15 Noroeste 21 Noroeste 0 1012.4 0.6 75
2019-06-02 12:00:00 19 14 Noroeste 20 Noroeste 0 1012 0.6 77
2019-06-02 11:00:00 19.7 3 Noroeste 6 Sur 0 1011.4 0 64
2019-06-02 10:00:00 21.2 3 Sudeste 8 Noroeste 0 1011.8 0.5 70
2019-06-02 09:00:00 18.6 5 Sudoeste 13 Sudoeste 0 1011.4 -0.4 80
2019-06-02 08:00:00 15.9 9 Sudoeste 16 Sudoeste 0 1011.4 -0.6 85
2019-06-02 07:00:00 13.9 11 Sudoeste 14 Sudoeste 0 1011.3 -0.7 90
2019-06-02 06:00:00 15 9 Sudoeste 15 Sudoeste 0 1011.8 -0.6 88
2019-06-02 05:00:00 14.8 13 Sudoeste 14 Sudoeste 0 1012 -0.7 87
2019-06-02 04:00:00 14.9 11 Sudoeste 13 Sudoeste 0 1012 -0.8 89
2019-06-02 03:00:00 15.4 11 Sudoeste 13 Sudoeste 0 1012.4 -0.8 86
2019-06-02 02:00:00 15.6 8 Sudoeste 14 Sudoeste 0 1012.7 -0.3 85
2019-06-02 01:00:00 16.1 12 Sudoeste 15 Sudoeste 0 1012.8 0.3 82
2019-06-02 00:00:00 16.7 9 Sur 11 Sur 0 1013.2 1 78
2019-06-01 23:00:00 18.3 3 Sudoeste 18 Oeste 0 1013 1.1 61
2019-06-01 22:00:00 18.6 14 Oeste 27 Oeste 0 1012.5 0.7 72
2019-06-01 21:00:00 20.1 17 Oeste 26 Oeste 0 1012.2 0.2 65
2019-06-01 20:00:00 22.3 14 Oeste 22 Oeste 0 1011.9 -0.3 51
2019-06-01 19:00:00 22.9 10 Noroeste 23 Noroeste 0 1011.8 -0.7 54
2019-06-01 18:00:00 21.7 17 Noroeste 23 Noroeste 0 1012 -0.7 59
2019-06-01 17:00:00 22 14 Noroeste 25 Noroeste 0 1012.2 -0.7 57
2019-06-01 16:00:00 22.1 17 Noroeste 29 Noroeste 0 1012.5 -0.7 55
2019-06-01 15:00:00 22.4 20 Noroeste 28 Noroeste 0 1012.7 -0.3 57
2019-06-01 14:00:00 22.5 17 Noroeste 25 Oeste 0 1012.9 -0.1 63
2019-06-01 13:00:00 23.1 14 Noroeste 20 Noroeste 0 1013.2 0.3 59
2019-06-01 12:00:00 19.9 10 Noroeste 12 Noroeste 0 1013 0.3 71
2019-06-01 11:00:00 19.7 4 Noroeste 8 Noroeste 0 1013 0.1 75
2019-06-01 10:00:00 18.4 5 Noroeste 15 Sudoeste 0 1012.9 0.2 77
2019-06-01 09:00:00 18.9 13 Sudoeste 17 Sudoeste 0 1012.7 -0.1 70
2019-06-01 08:00:00 15.1 12 Sudoeste 15 Sudoeste 0 1012.9 0.2 82
2019-06-01 07:00:00 14.2 12 Sudoeste 15 Sudoeste 0 1012.7 -0.3 88
2019-06-01 06:00:00 14.7 8 Sudoeste 14 Sudoeste 0 1012.8 -0.5 84
2019-06-01 05:00:00 14.2 12 Sudoeste 15 Sudoeste 0 1012.7 -1.3 89
2019-06-01 04:00:00 14.5 11 Sudoeste 15 Sudoeste 0 1013 -1.2 90
2019-06-01 03:00:00 14.9 11 Sudoeste 13 Sudoeste 0 1013.3 -1.5 91
2019-06-01 02:00:00 15.4 5 Sudoeste 11 Sudoeste 0 1014 -0.9 91
2019-06-01 01:00:00 15.6 8 Sudoeste 12 Sudoeste 0 1014.2 -0.4 91
2019-06-01 00:00:00 15.8 2 Sudoeste 6 Sur 0 1014.8 0.2 91
2019-05-31 23:00:00 16.4 0 Calma 6 Este 0 1014.9 0.2 90
2019-05-31 22:00:00 17.1 2 Nordeste 14 Este 0 1014.6 -0.5 88
2019-05-31 21:00:00 18.4 4 Este 17 Nordeste 0 1014.6 -0.8 84
2019-05-31 20:00:00 18.3 15 Nordeste 24 Este 0 1014.7 -1.1 84
2019-05-31 19:00:00 19.1 13 Nordeste 26 Este 0 1015.1 -1.2 82
2019-05-31 18:00:00 20.4 5 Nordeste 19 Este 0 1015.4 -1.3 79
2019-05-31 17:00:00 19.4 9 Este 26 Este 0 1015.8 -1 83
2019-05-31 16:00:00 19 13 Nordeste 22 Nordeste 0 1016.3 -0.8 83
2019-05-31 15:00:00 18.9 14 Este 23 Este 0 1016.7 -0.4 84
2019-05-31 14:00:00 18.8 14 Este 22 Este 0 1016.8 -0.5 84
2019-05-31 13:00:00 18.7 9 Nordeste 16 Este 0 1017.1 -0.2 85
2019-05-31 12:00:00 18.1 6 Nordeste 13 Este 0 1017.1 -0.2 85
2019-05-31 11:00:00 17.3 4 Nordeste 9 Nordeste 0 1017.3 -0.2 86
2019-05-31 10:00:00 16.5 2 Nordeste 7 Este 0 1017.3 -0.2 81
2019-05-31 09:00:00 16.6 6 Sudoeste 13 Sur 0 1017.3 -0.4 87
2019-05-31 08:00:00 13.2 9 Sudoeste 12 Sudoeste 0 1017.5 -0.5 92
2019-05-31 07:00:00 12.6 10 Sudoeste 13 Sudoeste 0 1017.5 -0.7 93
2019-05-31 06:00:00 12.2 10 Sudoeste 13 Sudoeste 0 1017.7 -0.8 93
2019-05-31 05:00:00 12.6 3 Sudoeste 12 Sudoeste 0 1018 -1.2 93
2019-05-31 04:00:00 13 9 Sudoeste 11 Sudoeste 0 1018.2 -1.7 93
2019-05-31 03:00:00 13.1 9 Sur 10 Sur 0 1018.5 -1.5 92
2019-05-31 02:00:00 13.7 7 Sur 9 Sur 0 1019.2 -1.1 92
2019-05-31 01:00:00 14.5 3 Sudoeste 9 Sudeste 0 1019.9 0.3 92
2019-05-31 00:00:00 14.8 3 Este 13 Este 0 1020 0.6 91
2019-05-30 23:00:00 15.3 4 Este 15 Este 0 1020.3 0.7 90
2019-05-30 22:00:00 16.3 3 Este 13 Este 0 1019.6 -0.2 89
2019-05-30 21:00:00 17.1 7 Este 24 Este 0 1019.4 -0.7 85
2019-05-30 20:00:00 16.8 15 Este 26 Nordeste 0 1019.6 -0.8 86
2019-05-30 19:00:00 17.8 9 Este 26 Este 0 1019.8 -0.6 87
2019-05-30 18:00:00 17.1 15 Este 30 Este 0 1020.1 -0.1 84
2019-05-30 17:00:00 18 11 Este 31 Este 0 1020.4 -0.1 81
2019-05-30 16:00:00 17.8 20 Este 35 Este 0 1020.4 -0.3 78
2019-05-30 15:00:00 17.3 24 Este 37 Este 0 1020.2 -0.5 75
2019-05-30 14:00:00 17.2 22 Este 36 Este 0 1020.5 -0.4 81
2019-05-30 13:00:00 17.1 17 Este 28 Nordeste 0 1020.7 -0.4 84
2019-05-30 12:00:00 17.3 17 Este 25 Este 0 1020.7 -0.4 84
2019-05-30 11:00:00 17.1 9 Este 17 Este 0 1020.9 0.3 83
2019-05-30 10:00:00 16.3 4 Este 8 Este 0 1021.1 0.6 79
2019-05-30 09:00:00 15.4 2 Sudoeste 13 Sudoeste 0 1021.1 0.7 87
2019-05-30 08:00:00 11.8 10 Sudoeste 13 Sudoeste 0 1020.6 0 92
2019-05-30 07:00:00 10.2 12 Sudoeste 14 Sudoeste 0 1020.5 -0.4 93
2019-05-30 06:00:00 10.4 11 Sudoeste 14 Sudoeste 0 1020.4 -1.2 93
2019-05-30 05:00:00 10.4 12 Sudoeste 15 Sudoeste 0 1020.6 -1.4 93
2019-05-30 04:00:00 10.6 11 Sur 15 Sudoeste 0 1020.9 -1 92
2019-05-30 03:00:00 11 10 Sudoeste 13 Sudoeste 0 1021.6 -0.7 92
2019-05-30 02:00:00 12 3 Sur 12 Sudoeste 0 1022 -0.5 92
2019-05-30 01:00:00 12 9 Sur 12 Sur 0 1021.9 0 92
2019-05-30 00:00:00 12.6 8 Sur 12 Sur 0 1022.3 0.5 91
2019-05-29 23:00:00 13.9 5 Este 16 Este 0 1022.5 0.9 90
2019-05-29 22:00:00 14.5 7 Este 27 Este 0 1021.9 -0.1 89
2019-05-29 21:00:00 15.1 17 Este 28 Este 0 1021.8 -0.4 87
2019-05-29 20:00:00 15.8 14 Este 22 Nordeste 0 1021.6 -0.7 78
2019-05-29 19:00:00 16.4 13 Nordeste 18 Nordeste 0 1022 -0.3 81
2019-05-29 18:00:00 16.7 13 Nordeste 19 Nordeste 0 1022.2 -0.5 83
2019-05-29 17:00:00 17.3 9 Nordeste 15 Este 0 1022.3 -0.5 82
2019-05-29 16:00:00 16.8 6 Nordeste 13 Norte 0 1022.3 -0.7 82
2019-05-29 15:00:00 16.5 6 Nordeste 11 Nordeste 0 1022.7 0.2 84
2019-05-29 14:00:00 16.3 7 Nordeste 13 Norte 0 1022.8 0.3 84
2019-05-29 13:00:00 16.2 9 Norte 12 Norte 0 1023 0.4 84
2019-05-29 12:00:00 15.2 5 Norte 14 Norte 0 1022.5 0.3 83
2019-05-29 11:00:00 16.3 3 Norte 13 Oeste 0 1022.5 0.9 84
2019-05-29 10:00:00 15.2 4 Noroeste 12 Noroeste 0 1022.6 1.5 81
2019-05-29 09:00:00 13 4 Sudoeste 10 Sur 0 1022.2 1.3 87
2019-05-29 08:00:00 11.9 4 Sudoeste 13 Sudoeste 0 1021.6 0.8 88
2019-05-29 07:00:00 11.1 6 Sudoeste 11 Sudoeste 0 1021.1 0.1 89
2019-05-29 06:00:00 11.1 5 Sudoeste 14 Sudoeste 0 1020.9 -0.2 89
2019-05-29 05:00:00 11.5 6 Sudoeste 14 Oeste 0 1020.8 -0.2 89
2019-05-29 04:00:00 11.4 5 Oeste 13 Sudoeste 0 1021 -0.3 90
2019-05-29 03:00:00 11.1 5 Oeste 11 Sudoeste 0 1021.1 0.1 89
2019-05-29 02:00:00 11.6 5 Sudoeste 14 Oeste 0 1021 0 89
2019-05-29 01:00:00 12.5 6 Oeste 19 Oeste 0 1021.3 1.1 88
2019-05-29 00:00:00 13.2 9 Oeste 24 Noroeste 0 1021 0.8 88
2019-05-28 23:00:00 13.6 17 Noroeste 27 Oeste 0 1021 0.9 87
2019-05-28 22:00:00 13.7 17 Noroeste 28 Noroeste 0 1020.2 0.5 87
2019-05-28 21:00:00 14.2 15 Noroeste 30 Noroeste 0 1020.2 0.9 86
2019-05-28 20:00:00 14.5 22 Noroeste 32 Noroeste 0 1020.1 0.8 84
2019-05-28 19:00:00 14.8 25 Noroeste 33 Noroeste 0 1019.7 0.4 84
2019-05-28 18:00:00 15.1 20 Noroeste 31 Noroeste 0 1019.3 0.6 82
2019-05-28 17:00:00 15.9 22 Noroeste 33 Noroeste 0 1019.3 0.7 79
2019-05-28 16:00:00 15.9 21 Noroeste 36 Noroeste 0 1019.3 1.6 81
2019-05-28 15:00:00 15.2 31 Noroeste 40 Noroeste 0 1018.7 1.1 80
2019-05-28 14:00:00 15.3 22 Noroeste 42 Noroeste 0 1018.6 1.2 82
2019-05-28 13:00:00 15.3 27 Noroeste 45 Noroeste 0 1017.7 0.3 81
2019-05-28 12:00:00 14.9 24 Noroeste 40 Noroeste 0 1017.6 0.7 78
2019-05-28 11:00:00 14.9 15 Noroeste 32 Oeste 0 1017.4 0.6 75
2019-05-28 10:00:00 14 20 Oeste 29 Oeste 0 1017.4 1.1 80
2019-05-28 09:00:00 13.5 15 Oeste 30 Oeste 0 1016.9 1 81
2019-05-28 08:00:00 12.8 14 Oeste 24 Oeste 0 1016.8 0.9 84
2019-05-28 07:00:00 12.1 10 Oeste 26 Oeste 0 1016.3 0.3 84
2019-05-28 06:00:00 12 9 Oeste 25 Oeste 0 1015.9 -0.1 86
2019-05-28 05:00:00 12.3 14 Oeste 24 Oeste 0 1015.9 -0.1 87
2019-05-28 04:00:00 12.8 18 Oeste 28 Noroeste 0 1016 -0.3 88
2019-05-28 03:00:00 13 13 Noroeste 28 Noroeste 0 1016 -0.3 89
2019-05-28 02:00:00 13.3 17 Noroeste 28 Noroeste 0 1016 -0.4 87
2019-05-28 01:00:00 13.3 23 Noroeste 31 Noroeste 0 1016.3 0.3 87
2019-05-28 00:00:00 13.5 18 Noroeste 30 Noroeste 0 1016.3 0.6 88
2019-05-27 23:00:00 13.6 14 Noroeste 23 Noroeste 0 1016.4 0.9 88
2019-05-27 22:00:00 13.5 19 Noroeste 26 Noroeste 0 1016 0.6 88
2019-05-27 21:00:00 13.8 18 Noroeste 25 Noroeste 0 1015.7 0.7 88
2019-05-27 20:00:00 13.8 19 Noroeste 33 Noroeste 0 1015.5 0.8 89
2019-05-27 19:00:00 14.1 11 Norte 33 Norte 0 1015.4 0.7 90
2019-05-27 18:00:00 14 11 Norte 28 Norte 0 1015 0.1 92
2019-05-27 17:00:00 14.3 14 Noroeste 30 Oeste 0.5 1014.7 0.1 93
2019-05-27 16:00:00 14.3 18 Oeste 28 Oeste 0.4 1014.7 0.1 93
2019-05-27 15:00:00 14.5 15 Noroeste 35 Oeste 0.3 1014.9 0.5 93
2019-05-27 14:00:00 14.3 23 Oeste 36 Oeste 0.2 1014.6 0.1 93
2019-05-27 13:00:00 14.4 21 Oeste 31 Oeste 0.6 1014.6 0.2 93
2019-05-27 12:00:00 14.1 7 Noroeste 14 Noroeste 0.4 1014.4 0.2 93
2019-05-27 11:00:00 13.5 7 Noroeste 16 Noroeste 0.8 1014.5 0.3 92
2019-05-27 10:00:00 13.6 14 Noroeste 23 Noroeste 0.1 1014.4 0.2 91
2019-05-27 09:00:00 13.9 2 Sudoeste 8 Sudoeste 0 1014.2 -0.2 90
2019-05-27 08:00:00 13.2 0 Calma 8 Sudoeste 0 1014.2 -0.4 90
2019-05-27 07:00:00 13 3 Sudoeste 7 Sudoeste 0 1014.2 -1 91
2019-05-27 06:00:00 13 2 Sudoeste 8 Sudoeste 0 1014.4 -1.4 91
2019-05-27 05:00:00 13.2 2 Sudoeste 10 Oeste 0 1014.6 -1.2 91
2019-05-27 04:00:00 13.1 0 Calma 6 Sudoeste 0 1015.2 -1.3 91
2019-05-27 03:00:00 13 2 Sudoeste 8 Sudoeste 0 1015.8 -1.6 92
2019-05-27 02:00:00 13 4 Sur 10 Sur 0 1015.8 -1.8 92
2019-05-27 01:00:00 13 5 Sur 17 Oeste 0 1016.5 -0.6 92
2019-05-27 00:00:00 13.1 10 Oeste 19 Noroeste 0.1 1017.4 -0.1 92
2019-05-26 23:00:00 13.4 0 Calma 9 Oeste 0 1017.6 -0.2 92
2019-05-26 22:00:00 13.4 2 Sudoeste 9 Oeste 0 1017.1 -0.9 92
2019-05-26 21:00:00 13.2 7 Oeste 20 Noroeste 0 1017.5 -0.7 92
2019-05-26 20:00:00 13.7 9 Noroeste 24 Noroeste 0.1 1017.8 -0.6 92
2019-05-26 19:00:00 14.3 7 Noroeste 14 Noroeste 0 1018 -0.8 91
2019-05-26 18:00:00 14.7 6 Noroeste 12 Noroeste 0 1018.2 -0.6 91
2019-05-26 17:00:00 14 4 Norte 23 Norte 0 1018.4 -0.9 92
2019-05-26 16:00:00 15 12 Noroeste 19 Noroeste 0 1018.8 -0.7 89
2019-05-26 15:00:00 15.8 11 Noroeste 22 Noroeste 0 1018.8 -0.7 88
2019-05-26 14:00:00 15.3 18 Noroeste 22 Noroeste 0 1019.3 -0.3 87
2019-05-26 13:00:00 15.7 18 Noroeste 26 Noroeste 0 1019.5 0.1 83
2019-05-26 12:00:00 15.9 15 Noroeste 22 Noroeste 0 1019.5 0.1 82
2019-05-26 11:00:00 15.6 15 Noroeste 21 Noroeste 0 1019.6 0.2 85
2019-05-26 10:00:00 15.3 10 Noroeste 18 Oeste 0 1019.4 0.2 82
2019-05-26 09:00:00 14.5 5 Oeste 10 Oeste 0 1019.4 0.3 87
2019-05-26 08:00:00 12.8 2 Sudoeste 10 Oeste 0 1019.4 -0.1 90
2019-05-26 07:00:00 12.2 3 Oeste 10 Oeste 0 1019.2 -0.6 90
2019-05-26 06:00:00 12.7 0 Calma 7 Sur 0 1019.1 -0.9 90
2019-05-26 05:00:00 13 2 Sudoeste 8 Sudoeste 0 1019.5 -1 89
2019-05-26 04:00:00 13.3 2 Sudoeste 7 Sur 0 1019.8 -1.1 89
2019-05-26 03:00:00 13.2 3 Sudoeste 8 Sudoeste 0 1020 -1.2 89
2019-05-26 02:00:00 13.4 0 Calma 6 Sudoeste 0 1020.5 -0.9 89
2019-05-26 01:00:00 13.2 3 Sudoeste 9 Sudoeste 0 1020.9 0 89
2019-05-26 00:00:00 13.5 4 Sudoeste 9 Oeste 0 1021.2 0.6 88